Time;durP1;ratioP1;P1;durP2;ratioP2;P2;SDS_P1;SDS_P2;PMS_P1;PMS_P2;Temp;Humidity;BMP_temperature;BMP_pressure;BME280_temperature;BME280_humidity;BME280_pressure;Samples;Min_cycle;Max_cycle;Signal;HPM_P1;HPM_P2
2023/09/22 00:00:05;;;;;;;2.85;1.65;;;15.30;99.90;;;;;;5050977;28;20033;-56
2023/09/22 00:02:30;;;;;;;4.85;1.90;;;15.30;99.90;;;;;;5051067;28;20393;-52
2023/09/22 00:04:57;;;;;;;2.97;1.70;;;15.30;99.90;;;;;;5051053;28;20348;-57
2023/09/22 00:07:23;;;;;;;3.97;1.92;;;15.30;99.90;;;;;;5051175;28;20063;-54
2023/09/22 00:09:49;;;;;;;6.35;2.55;;;15.40;99.90;;;;;;5049693;28;20039;-54
2023/09/22 00:12:15;;;;;;;5.38;2.33;;;15.40;99.90;;;;;;5050833;28;20559;-55
2023/09/22 00:14:41;;;;;;;5.55;3.00;;;15.40;99.90;;;;;;5051091;28;20283;-53
2023/09/22 00:17:06;;;;;;;6.18;3.20;;;15.30;99.90;;;;;;5050738;28;20028;-56
2023/09/22 00:19:32;;;;;;;7.50;3.40;;;15.40;99.90;;;;;;5050481;28;20044;-57
2023/09/22 00:21:58;;;;;;;6.78;3.10;;;15.30;99.90;;;;;;5050698;28;20512;-57
2023/09/22 00:24:23;;;;;;;5.80;2.50;;;15.30;99.90;;;;;;5050500;28;20075;-54
2023/09/22 00:26:49;;;;;;;10.55;3.15;;;15.30;99.90;;;;;;5050693;28;20071;-53
2023/09/22 00:29:15;;;;;;;6.75;2.90;;;15.30;99.90;;;;;;5048893;28;20029;-54
2023/09/22 00:31:41;;;;;;;4.90;2.78;;;15.30;99.90;;;;;;5050562;28;20122;-54
2023/09/22 00:34:06;;;;;;;7.22;3.03;;;15.30;99.90;;;;;;5049157;28;20029;-54
2023/09/22 00:36:35;;;;;;;5.85;2.92;;;15.20;99.90;;;;;;5049457;28;20067;-55
2023/09/22 00:39:03;;;;;;;5.30;2.95;;;15.30;99.90;;;;;;5048909;28;20025;-56
2023/09/22 00:41:30;;;;;;;4.03;1.92;;;15.30;99.90;;;;;;5032398;28;20405;-55
2023/09/22 00:43:55;;;;;;;3.58;1.60;;;15.30;99.90;;;;;;5050541;28;20037;-54
2023/09/22 00:46:26;;;;;;;2.63;1.73;;;15.20;99.90;;;;;;5032702;28;20457;-54
2023/09/22 00:48:55;;;;;;;4.43;1.50;;;15.20;99.90;;;;;;5050367;28;20116;-55
2023/09/22 00:51:21;;;;;;;2.65;1.40;;;15.20;99.90;;;;;;5049010;28;20489;-56
2023/09/22 00:53:49;;;;;;;3.80;1.58;;;15.10;99.90;;;;;;5050654;28;20246;-54
2023/09/22 00:56:20;;;;;;;2.65;1.38;;;15.10;99.90;;;;;;5050528;28;20029;-56
2023/09/22 00:58:47;;;;;;;4.85;1.25;;;15.10;99.90;;;;;;5048887;28;20121;-57
2023/09/22 01:01:13;;;;;;;2.05;1.30;;;15.00;99.90;;;;;;5049023;28;20032;-57
2023/09/22 01:03:39;;;;;;;3.40;1.40;;;15.00;99.90;;;;;;5049478;28;20401;-54
2023/09/22 01:06:09;;;;;;;2.42;1.40;;;14.90;99.90;;;;;;5049233;28;20035;-57
2023/09/22 01:08:34;;;;;;;3.80;1.50;;;14.90;99.90;;;;;;5048963;28;20029;-54
2023/09/22 01:11:02;;;;;;;3.78;1.42;;;14.80;99.90;;;;;;5050053;28;20032;-55
2023/09/22 01:13:28;;;;;;;3.05;1.17;;;14.80;99.90;;;;;;5049175;28;20120;-57
2023/09/22 01:15:55;;;;;;;3.05;1.40;;;14.70;99.90;;;;;;5050292;28;20485;-55
2023/09/22 01:18:20;;;;;;;2.00;1.23;;;14.70;99.90;;;;;;5049170;28;20029;-56
2023/09/22 01:20:46;;;;;;;5.10;1.50;;;14.70;99.90;;;;;;5051315;28;20028;-56
2023/09/22 01:23:13;;;;;;;2.13;1.15;;;14.70;99.90;;;;;;5052551;28;20037;-55
2023/09/22 01:25:40;;;;;;;2.85;1.50;;;14.70;99.90;;;;;;5052694;28;20313;-54
2023/09/22 01:28:07;;;;;;;3.97;1.40;;;14.70;99.90;;;;;;5053770;28;20033;-50
2023/09/22 01:30:33;;;;;;;2.95;1.50;;;14.70;99.90;;;;;;5052305;28;20029;-55
2023/09/22 01:33:02;;;;;;;4.20;1.58;;;14.60;99.90;;;;;;5052439;28;20037;-53
2023/09/22 01:35:31;;;;;;;2.92;1.42;;;14.70;99.90;;;;;;5052305;28;20029;-54
2023/09/22 01:38:23;;;;;;;5.03;1.52;;;14.70;99.90;;;;;;5052306;28;20029;-56
2023/09/22 01:40:50;;;;;;;2.67;1.45;;;14.70;99.90;;;;;;5052147;28;20033;-54
2023/09/22 01:43:17;;;;;;;4.82;1.70;;;14.60;99.90;;;;;;5053638;28;20425;-56
2023/09/22 01:45:43;;;;;;;3.33;1.48;;;14.70;99.90;;;;;;5052177;28;20028;-53
2023/09/22 01:48:09;;;;;;;3.80;1.52;;;14.60;99.90;;;;;;5052003;28;20087;-54
2023/09/22 01:50:37;;;;;;;5.13;1.65;;;14.60;99.90;;;;;;5052936;28;20039;-56
2023/09/22 01:53:05;;;;;;;2.70;1.50;;;14.60;99.90;;;;;;5052014;28;20033;-55
2023/09/22 01:55:31;;;;;;;4.60;1.63;;;14.60;99.90;;;;;;5052061;28;20079;-55
2023/09/22 01:57:58;;;;;;;2.78;1.40;;;14.60;99.90;;;;;;5051945;28;20378;-55
2023/09/22 02:00:23;;;;;;;3.38;1.58;;;14.50;99.90;;;;;;5051883;28;20173;-55
2023/09/22 02:02:50;;;;;;;3.20;1.40;;;14.60;99.90;;;;;;5053267;28;20033;-54
2023/09/22 02:05:16;;;;;;;2.47;1.42;;;14.60;99.90;;;;;;5053416;28;20400;-55
2023/09/22 02:07:42;;;;;;;6.07;2.25;;;14.60;99.90;;;;;;5052985;28;20048;-55
2023/09/22 02:10:15;;;;;;;3.55;1.55;;;14.70;99.90;;;;;;5051732;28;20122;-54
2023/09/22 02:12:44;;;;;;;3.72;1.90;;;14.60;99.90;;;;;;5052923;28;20033;-54
2023/09/22 02:15:11;;;;;;;;;;;14.60;99.90;;;;;;5052296;28;20029;-54
2023/09/22 02:17:38;;;;;;;5.82;1.80;;;14.60;99.90;;;;;;5053149;28;20225;-55
2023/09/22 02:20:40;;;;;;;5.30;2.10;;;14.70;99.90;;;;;;5051103;28;20033;-54
2023/09/22 02:22:56;;;;;;;2.75;1.58;;;14.60;99.90;;;;;;5050905;28;20443;-56
2023/09/22 02:25:24;;;;;;;3.78;1.55;;;14.60;99.90;;;;;;5051411;28;20025;-54
2023/09/22 02:27:52;;;;;;;3.00;1.30;;;14.70;99.90;;;;;;5051492;28;20033;-56
2023/09/22 02:30:18;;;;;;;4.55;1.40;;;14.70;99.90;;;;;;5052529;28;20032;-53
2023/09/22 02:32:49;;;;;;;3.60;1.30;;;14.70;99.90;;;;;;5050576;28;20448;-54
2023/09/22 02:35:21;;;;;;;2.53;1.35;;;14.70;99.90;;;;;;5051476;28;20413;-54
2023/09/22 02:37:46;;;;;;;5.57;1.10;;;14.70;99.90;;;;;;5051022;28;20382;-56
2023/09/22 02:40:14;;;;;;;2.25;1.05;;;14.60;99.90;;;;;;5052119;28;20060;-51
2023/09/22 02:42:40;;;;;;;2.03;1.20;;;14.60;99.90;;;;;;5052710;28;20043;-55
2023/09/22 02:45:06;;;;;;;2.28;1.08;;;14.60;99.90;;;;;;5051083;28;20509;-50
2023/09/22 02:47:32;;;;;;;4.03;1.30;;;14.60;99.90;;;;;;5051007;28;20040;-53
2023/09/22 02:49:57;;;;;;;7.88;1.88;;;14.60;99.90;;;;;;5050621;28;20033;-53
2023/09/22 02:52:23;;;;;;;2.55;1.20;;;14.60;99.90;;;;;;5050708;28;20083;-56
2023/09/22 02:54:57;;;;;;;2.47;1.42;;;14.50;99.90;;;;;;5051000;28;20482;-54
2023/09/22 02:57:23;;;;;;;2.17;1.00;;;14.40;99.90;;;;;;5052071;28;20061;-54
2023/09/22 02:59:53;;;;;;;1.92;1.27;;;14.40;99.90;;;;;;5050472;28;20083;-54
2023/09/22 03:02:20;;;;;;;3.83;1.58;;;14.40;99.90;;;;;;5052509;28;20086;-55
2023/09/22 03:04:46;;;;;;;2.40;1.27;;;14.30;99.90;;;;;;5052474;28;20158;-54
2023/09/22 03:07:13;;;;;;;3.40;1.23;;;14.20;99.90;;;;;;5050825;28;20028;-53
2023/09/22 03:09:38;;;;;;;2.35;1.33;;;14.20;99.90;;;;;;5050212;28;20035;-53
2023/09/22 03:12:05;;;;;;;4.47;1.10;;;14.10;99.90;;;;;;5050648;28;20036;-55
2023/09/22 03:14:32;;;;;;;4.68;1.83;;;14.10;99.90;;;;;;5050710;28;20032;-54
2023/09/22 03:16:59;;;;;;;3.85;1.40;;;14.10;99.90;;;;;;5050599;28;20082;-53
2023/09/22 03:19:25;;;;;;;2.42;1.30;;;14.10;99.90;;;;;;5050099;28;20119;-55
2023/09/22 03:21:51;;;;;;;2.67;1.30;;;14.10;99.90;;;;;;5050410;28;20120;-51
2023/09/22 03:24:16;;;;;;;3.10;1.50;;;14.00;99.90;;;;;;5050305;28;20489;-54
2023/09/22 03:26:42;;;;;;;2.60;1.38;;;13.90;99.90;;;;;;5050534;28;20037;-53
2023/09/22 03:29:07;;;;;;;3.88;1.42;;;13.90;99.90;;;;;;5050121;28;20040;-51
2023/09/22 03:31:36;;;;;;;2.60;1.40;;;13.90;99.90;;;;;;5050225;28;20066;-53
2023/09/22 03:34:02;;;;;;;2.17;1.23;;;13.90;99.90;;;;;;5050491;28;20032;-54
2023/09/22 03:36:30;;;;;;;3.17;1.38;;;13.80;99.90;;;;;;5050515;28;20168;-55
2023/09/22 03:38:57;;;;;;;5.32;1.50;;;13.80;99.90;;;;;;5050032;28;20048;-55
2023/09/22 03:41:28;;;;;;;3.00;1.45;;;13.70;99.90;;;;;;5051264;28;20029;-55
2023/09/22 03:43:55;;;;;;;1.95;1.10;;;13.80;99.90;;;;;;5050383;28;20449;-51
2023/09/22 03:46:22;;;;;;;2.15;1.42;;;13.70;99.90;;;;;;5051242;28;20117;-55
2023/09/22 03:48:48;;;;;;;2.33;1.20;;;13.80;99.90;;;;;;5049657;28;20486;-55
2023/09/22 03:51:14;;;;;;;3.13;1.42;;;13.80;99.90;;;;;;5049657;28;20279;-56
2023/09/22 03:53:39;;;;;;;3.90;1.40;;;13.80;99.90;;;;;;5050070;28;20563;-55
2023/09/22 03:56:07;;;;;;;3.33;1.20;;;13.80;99.90;;;;;;5049949;28;20032;-55
2023/09/22 03:58:32;;;;;;;6.00;1.30;;;13.80;99.90;;;;;;5049573;28;20504;-54
2023/09/22 04:01:06;;;;;;;1.05;0.95;;;13.80;99.90;;;;;;5049505;28;20029;-55
2023/09/22 04:03:31;;;;;;;2.03;1.00;;;13.80;99.90;;;;;;5051013;28;20150;-56
2023/09/22 04:05:57;;;;;;;3.20;1.17;;;13.80;99.90;;;;;;5049733;28;20140;-52
2023/09/22 04:08:24;;;;;;;3.25;1.75;;;13.80;99.90;;;;;;5049583;28;20550;-55
2023/09/22 04:10:50;;;;;;;10.55;3.40;;;13.80;99.90;;;;;;5050560;28;20029;-52
2023/09/22 04:13:18;;;;;;;4.15;1.50;;;13.80;99.90;;;;;;5049489;28;20055;-52
2023/09/22 04:15:45;;;;;;;4.28;1.42;;;13.80;99.90;;;;;;5050799;28;20044;-55
2023/09/22 04:18:11;;;;;;;2.80;1.30;;;13.80;99.90;;;;;;5050626;28;20031;-56
2023/09/22 04:20:43;;;;;;;3.60;1.15;;;13.80;99.90;;;;;;5050317;28;20112;-57
2023/09/22 04:23:10;;;;;;;2.53;1.20;;;13.80;99.90;;;;;;5050555;28;20132;-51
2023/09/22 04:25:37;;;;;;;2.50;1.20;;;13.80;99.90;;;;;;5050700;28;20451;-55
2023/09/22 04:28:11;;;;;;;4.70;1.10;;;13.90;99.90;;;;;;5050547;28;20036;-54
2023/09/22 04:30:38;;;;;;;1.98;0.80;;;13.90;99.90;;;;;;5050255;28;20039;-56
2023/09/22 04:33:04;;;;;;;2.08;0.95;;;13.90;99.90;;;;;;5050621;28;20037;-51
2023/09/22 04:35:33;;;;;;;3.53;1.20;;;13.90;99.90;;;;;;5050524;28;20037;-57
2023/09/22 04:38:01;;;;;;;1.73;0.80;;;13.90;99.90;;;;;;5050447;28;20119;-56
2023/09/22 04:40:34;;;;;;;1.50;0.98;;;14.00;99.90;;;;;;5050118;28;20107;-54
2023/09/22 04:43:01;;;;;;;2.05;1.00;;;14.00;99.90;;;;;;5050508;28;20474;-52
2023/09/22 04:45:26;;;;;;;3.22;0.73;;;13.90;99.90;;;;;;5050355;28;20063;-57
2023/09/22 04:47:52;;;;;;;2.67;0.88;;;13.80;99.90;;;;;;5050399;28;20048;-57
2023/09/22 04:50:18;;;;;;;1.77;1.00;;;13.90;99.90;;;;;;5049967;28;20061;-55
2023/09/22 04:52:49;;;;;;;1.98;0.77;;;13.80;99.90;;;;;;5050932;28;20423;-53
2023/09/22 04:55:19;;;;;;;1.60;1.02;;;13.80;99.90;;;;;;5051269;28;20478;-56
2023/09/22 04:57:45;;;;;;;3.72;1.10;;;13.90;99.90;;;;;;5054543;28;20426;-57
2023/09/22 05:00:21;;;;;;;2.38;0.98;;;13.90;99.90;;;;;;5054180;28;20028;-54
2023/09/22 05:02:47;;;;;;;1.90;1.10;;;13.90;99.90;;;;;;5054526;28;20072;-55
2023/09/22 05:05:16;;;;;;;1.63;1.10;;;13.90;99.90;;;;;;5054572;28;20039;-51
2023/09/22 05:07:42;;;;;;;3.38;1.25;;;13.90;99.90;;;;;;5054430;28;20501;-53
2023/09/22 05:10:08;;;;;;;4.18;1.20;;;13.90;99.90;;;;;;5053948;28;20037;-55
2023/09/22 05:12:35;;;;;;;4.10;1.17;;;13.90;99.90;;;;;;5054324;28;20037;-54
2023/09/22 05:15:02;;;;;;;3.03;1.10;;;13.90;99.90;;;;;;5054395;28;20135;-56
2023/09/22 05:17:28;;;;;;;6.15;1.38;;;13.90;99.90;;;;;;5052823;28;20436;-55
2023/09/22 05:19:54;;;;;;;3.88;1.20;;;13.80;99.90;;;;;;5053889;28;20021;-54
2023/09/22 05:22:20;;;;;;;2.28;1.30;;;13.80;99.90;;;;;;5054090;28;20033;-54
2023/09/22 05:24:46;;;;;;;2.13;1.08;;;13.80;99.90;;;;;;5054380;28;20378;-56
2023/09/22 05:27:12;;;;;;;1.60;0.90;;;13.80;99.90;;;;;;5054006;28;20060;-56
2023/09/22 05:29:38;;;;;;;4.05;1.10;;;13.70;99.90;;;;;;5053356;28;20393;-51
2023/09/22 05:32:04;;;;;;;3.63;0.90;;;13.70;99.90;;;;;;5052648;28;20029;-52
2023/09/22 05:34:29;;;;;;;5.20;1.00;;;13.70;99.90;;;;;;5053797;28;20393;-51
2023/09/22 05:36:55;;;;;;;2.13;1.17;;;13.70;99.90;;;;;;5053711;28;20120;-54
2023/09/22 05:39:20;;;;;;;2.55;1.10;;;13.70;99.90;;;;;;5053170;28;20025;-53
2023/09/22 05:41:47;;;;;;;3.45;1.23;;;13.70;99.90;;;;;;5053654;28;20037;-51
2023/09/22 05:44:13;;;;;;;3.08;1.20;;;13.70;99.90;;;;;;5053690;28;20048;-53
2023/09/22 05:46:39;;;;;;;1.98;1.05;;;13.80;99.90;;;;;;5053943;28;20478;-53
2023/09/22 05:49:06;;;;;;;4.82;1.38;;;13.80;99.90;;;;;;5053779;28;20040;-51
2023/09/22 05:51:32;;;;;;;5.10;1.33;;;13.80;99.90;;;;;;5053862;28;20033;-51
2023/09/22 05:53:58;;;;;;;3.35;1.30;;;13.80;99.90;;;;;;5054410;28;20028;-52
2023/09/22 05:56:25;;;;;;;2.42;0.98;;;13.80;99.90;;;;;;5054132;28;20060;-53
2023/09/22 05:58:51;;;;;;;3.42;1.00;;;13.80;99.90;;;;;;5054538;28;20025;-52
2023/09/22 06:01:16;;;;;;;3.92;1.15;;;13.80;99.90;;;;;;5054957;28;20511;-52
2023/09/22 06:03:44;;;;;;;2.90;1.00;;;13.80;99.90;;;;;;5054590;28;20040;-52
2023/09/22 06:06:14;;;;;;;2.65;0.85;;;13.80;99.90;;;;;;5054591;28;20472;-55
2023/09/22 06:08:41;;;;;;;2.40;0.70;;;13.80;99.90;;;;;;5052482;28;20076;-57
2023/09/22 06:11:08;;;;;;;1.98;1.20;;;13.80;99.90;;;;;;5053229;28;20455;-51
2023/09/22 06:13:34;;;;;;;5.35;1.00;;;13.70;99.90;;;;;;5053101;28;20048;-56
2023/09/22 06:16:01;;;;;;;2.80;1.10;;;13.70;99.90;;;;;;5053125;28;20025;-57
2023/09/22 06:18:27;;;;;;;3.83;1.23;;;13.70;99.90;;;;;;5052726;28;20025;-50
2023/09/22 06:20:57;;;;;;;4.35;1.20;;;13.70;99.90;;;;;;5052908;28;20366;-56
2023/09/22 06:23:26;;;;;;;4.50;1.08;;;13.70;99.90;;;;;;5053081;28;20167;-51
2023/09/22 06:25:54;;;;;;;1.30;0.95;;;13.70;99.90;;;;;;5053248;28;20024;-55
2023/09/22 06:28:20;;;;;;;3.20;1.40;;;13.70;99.90;;;;;;5052887;28;20108;-52
2023/09/22 06:30:49;;;;;;;2.13;1.00;;;13.70;99.90;;;;;;5052565;28;20601;-52
2023/09/22 06:33:16;;;;;;;4.72;1.08;;;13.80;99.90;;;;;;5052794;28;20077;-52
2023/09/22 06:35:43;;;;;;;14.30;8.40;;;13.80;99.90;;;;;;5052744;28;20029;-52
2023/09/22 06:38:13;;;;;;;16.10;6.45;;;13.80;99.90;;;;;;5052841;28;20094;-57
2023/09/22 06:40:39;;;;;;;5.60;3.10;;;13.80;99.90;;;;;;5052304;28;20044;-54
2023/09/22 06:43:05;;;;;;;7.70;3.05;;;13.80;99.90;;;;;;5052825;28;20029;-55
2023/09/22 06:45:34;;;;;;;4.40;1.98;;;13.80;99.90;;;;;;5052577;28;20040;-54
2023/09/22 06:48:00;;;;;;;4.38;1.80;;;13.90;99.90;;;;;;5052575;28;20040;-51
2023/09/22 06:50:27;;;;;;;5.35;1.45;;;13.90;99.90;;;;;;5051970;28;20033;-54
2023/09/22 06:52:53;;;;;;;3.95;1.50;;;14.00;99.90;;;;;;5052381;28;20121;-55
2023/09/22 06:55:19;;;;;;;3.30;1.30;;;14.10;99.90;;;;;;5052338;28;20053;-55
2023/09/22 06:57:44;;;;;;;2.97;1.08;;;14.10;99.90;;;;;;5052252;28;20041;-53
2023/09/22 07:00:18;;;;;;;1.95;1.15;;;14.20;99.90;;;;;;5051916;28;20021;-51
2023/09/22 07:02:47;;;;;;;5.22;1.20;;;14.20;99.90;;;;;;5052229;28;20047;-51
2023/09/22 07:05:13;;;;;;;3.17;1.38;;;14.30;99.90;;;;;;5052285;28;20119;-55
2023/09/22 07:07:40;;;;;;;3.38;1.40;;;14.30;99.90;;;;;;5052335;28;20032;-52
2023/09/22 07:10:12;;;;;;;4.28;1.40;;;14.40;99.90;;;;;;5051699;28;20047;-57
2023/09/22 07:12:39;;;;;;;2.25;0.95;;;14.40;99.90;;;;;;5051732;28;20037;-55
2023/09/22 07:15:06;;;;;;;2.72;1.33;;;14.40;99.90;;;;;;5051970;28;20063;-55
2023/09/22 07:17:33;;;;;;;2.33;1.20;;;14.50;99.90;;;;;;5051689;28;20029;-54
2023/09/22 07:20:08;;;;;;;2.47;1.17;;;14.60;99.90;;;;;;5051324;28;20029;-52
2023/09/22 07:22:34;;;;;;;3.92;1.42;;;14.60;99.90;;;;;;5051732;28;20037;-54
2023/09/22 07:25:00;;;;;;;3.65;1.25;;;14.70;99.90;;;;;;5051711;28;20036;-56
2023/09/22 07:27:26;;;;;;;2.42;1.02;;;14.80;99.90;;;;;;5051481;28;20064;-53
2023/09/22 07:29:52;;;;;;;3.63;1.15;;;14.90;99.90;;;;;;5051203;28;20068;-52
2023/09/22 07:32:18;;;;;;;3.03;1.25;;;15.00;99.90;;;;;;5051519;28;20040;-56
2023/09/22 07:34:45;;;;;;;2.28;0.95;;;15.00;99.90;;;;;;5051665;28;20044;-54
2023/09/22 07:37:12;;;;;;;4.20;1.20;;;15.00;99.90;;;;;;5051528;28;20040;-56
2023/09/22 07:39:38;;;;;;;1.83;0.77;;;15.10;99.90;;;;;;5051120;28;20119;-54
2023/09/22 07:42:09;;;;;;;2.75;0.98;;;15.20;99.90;;;;;;5051553;28;20079;-55
2023/09/22 07:44:35;;;;;;;1.95;0.77;;;15.30;99.90;;;;;;5051671;28;20090;-55
2023/09/22 07:47:03;;;;;;;1.85;0.70;;;15.40;99.90;;;;;;5051333;28;20394;-56
2023/09/22 07:49:29;;;;;;;2.40;0.85;;;15.40;99.90;;;;;;5050857;28;20097;-55
2023/09/22 07:51:55;;;;;;;1.63;0.50;;;15.40;99.90;;;;;;5051325;28;20033;-55
2023/09/22 07:54:24;;;;;;;2.75;0.93;;;15.60;99.90;;;;;;5051218;28;20036;-53
2023/09/22 07:56:50;;;;;;;2.45;0.70;;;15.60;99.90;;;;;;5051511;28;20032;-53
2023/09/22 07:59:16;;;;;;;1.98;0.70;;;15.70;99.90;;;;;;5050740;28;20021;-56
2023/09/22 08:01:43;;;;;;;2.03;0.77;;;15.70;99.90;;;;;;5051044;28;20029;-57
2023/09/22 08:04:10;;;;;;;3.63;1.25;;;15.70;99.90;;;;;;5051074;28;20037;-55
2023/09/22 08:06:35;;;;;;;2.58;0.85;;;15.80;99.90;;;;;;5050997;28;20052;-56
2023/09/22 08:09:03;;;;;;;2.13;0.60;;;15.90;99.90;;;;;;5050766;28;20029;-55
2023/09/22 08:11:29;;;;;;;3.85;1.05;;;16.00;99.90;;;;;;5050839;28;20483;-55
2023/09/22 08:13:55;;;;;;;2.85;1.00;;;16.10;99.90;;;;;;5050980;28;20116;-53
2023/09/22 08:16:21;;;;;;;1.35;0.68;;;16.20;99.90;;;;;;5049600;28;20211;-56
2023/09/22 08:18:47;;;;;;;3.97;1.42;;;16.30;99.90;;;;;;5050685;28;20071;-55
2023/09/22 08:21:13;;;;;;;1.88;0.60;;;16.30;99.90;;;;;;5050667;28;20568;-55
2023/09/22 08:23:40;;;;;;;1.05;0.45;;;16.40;99.90;;;;;;5050545;28;20098;-56
2023/09/22 08:26:06;;;;;;;1.65;0.70;;;16.60;99.90;;;;;;5050819;28;20108;-51
2023/09/22 08:28:37;;;;;;;2.10;0.60;;;16.70;99.90;;;;;;5050394;28;20505;-56
2023/09/22 08:31:05;;;;;;;4.50;0.70;;;16.90;99.90;;;;;;5049838;28;20057;-55
2023/09/22 08:33:32;;;;;;;1.80;0.40;;;16.90;99.90;;;;;;5050823;28;20486;-57
2023/09/22 08:35:57;;;;;;;1.40;0.47;;;17.00;99.90;;;;;;5050745;28;20033;-53
2023/09/22 08:38:23;;;;;;;3.90;0.52;;;17.10;99.90;;;;;;5050512;28;20031;-53
2023/09/22 08:40:50;;;;;;;0.82;0.40;;;17.10;99.90;;;;;;5049384;28;20307;-52
2023/09/22 08:43:18;;;;;;;2.72;1.05;;;17.00;99.90;;;;;;5050678;28;20040;-57
2023/09/22 08:45:44;;;;;;;1.80;0.95;;;17.00;99.90;;;;;;5050656;28;20037;-55
2023/09/22 08:48:10;;;;;;;3.45;1.17;;;17.00;99.90;;;;;;5050628;28;20029;-56
2023/09/22 08:50:37;;;;;;;3.22;1.05;;;17.10;99.90;;;;;;5050121;28;20063;-53
2023/09/22 08:53:03;;;;;;;1.83;0.55;;;17.10;99.90;;;;;;5050650;28;20065;-55
2023/09/22 08:55:29;;;;;;;0.93;0.52;;;17.20;99.90;;;;;;5050516;28;20044;-53
2023/09/22 08:57:54;;;;;;;1.75;0.60;;;17.30;99.90;;;;;;5050595;28;20392;-54
2023/09/22 09:00:23;;;;;;;1.20;0.63;;;17.40;99.90;;;;;;5050433;28;20033;-51
2023/09/22 09:02:51;;;;;;;1.50;0.50;;;17.40;99.90;;;;;;5050868;28;20057;-56
2023/09/22 09:05:33;;;;;;;2.15;0.70;;;17.40;99.90;;;;;;5050699;28;20033;-54
2023/09/22 09:08:15;;;;;;;5.15;1.48;;;17.50;99.90;;;;;;5050720;28;20462;-57
2023/09/22 09:10:43;;;;;;;5.57;1.23;;;17.60;99.90;;;;;;5050154;28;20059;-56
2023/09/22 09:13:14;;;;;;;2.30;1.27;;;17.60;99.90;;;;;;5050590;28;20119;-57
2023/09/22 09:15:48;;;;;;;1.73;0.70;;;17.50;99.90;;;;;;5050369;28;20033;-54
2023/09/22 09:18:19;;;;;;;2.83;0.68;;;17.60;99.90;;;;;;5050846;28;20029;-52
2023/09/22 09:20:48;;;;;;;2.35;0.82;;;17.90;99.90;;;;;;5050274;28;20021;-51
2023/09/22 09:23:23;;;;;;;2.95;0.90;;;18.10;99.90;;;;;;5050599;28;20438;-54
2023/09/22 09:25:54;;;;;;;1.20;0.57;;;18.20;99.90;;;;;;5050411;28;20033;-50
2023/09/22 09:28:21;;;;;;;1.40;0.50;;;18.30;99.90;;;;;;5050057;28;20527;-51
2023/09/22 09:30:49;;;;;;;0.82;0.40;;;18.30;99.90;;;;;;5050085;28;20025;-51
2023/09/22 09:33:15;;;;;;;0.50;0.25;;;18.30;99.90;;;;;;5050165;28;20124;-49
2023/09/22 09:35:41;;;;;;;1.02;0.40;;;18.30;99.90;;;;;;5050269;28;20049;-50
2023/09/22 09:38:10;;;;;;;0.82;0.60;;;18.30;99.90;;;;;;5050179;28;20388;-50
2023/09/22 09:40:39;;;;;;;;;;;18.30;99.90;;;;;;5050310;28;20060;-50
2023/09/22 09:43:10;;;;;;;2.35;0.57;;;18.30;99.90;;;;;;5053546;28;20003;-55
2023/09/22 09:45:45;;;;;;;1.48;0.50;;;18.30;99.90;;;;;;5053765;28;20025;-52
2023/09/22 09:48:15;;;;;;;0.85;0.50;;;18.30;99.90;;;;;;5053798;28;20068;-52
2023/09/22 09:50:45;;;;;;;2.78;0.90;;;18.30;99.90;;;;;;5053384;28;20033;-52
2023/09/22 09:53:26;;;;;;;1.80;0.80;;;18.20;99.90;;;;;;5053555;28;20029;-50
2023/09/22 09:55:58;;;;;;;1.20;0.50;;;18.10;99.90;;;;;;5053609;28;20120;-52
2023/09/22 09:58:27;;;;;;;1.50;0.88;;;17.90;99.90;;;;;;5053374;28;20067;-52
2023/09/22 10:00:54;;;;;;;1.90;0.70;;;17.70;99.90;;;;;;5053339;28;20029;-51
2023/09/22 10:03:21;;;;;;;2.88;0.65;;;17.50;99.90;;;;;;5053547;28;20454;-51
2023/09/22 10:05:50;;;;;;;1.95;0.70;;;17.30;99.90;;;;;;5053291;28;20060;-51
2023/09/22 10:08:21;;;;;;;3.50;1.30;;;17.20;99.90;;;;;;5053308;28;20124;-50
2023/09/22 10:10:49;;;;;;;5.55;1.38;;;17.20;99.90;;;;;;5053108;28;20036;-52
2023/09/22 10:13:15;;;;;;;3.20;1.10;;;17.10;99.90;;;;;;5053277;28;20028;-49
2023/09/22 10:15:56;;;;;;;2.72;1.23;;;17.00;99.90;;;;;;5053260;28;20061;-50
2023/09/22 10:18:23;;;;;;;2.58;1.00;;;17.00;99.90;;;;;;5051659;28;20037;-51
2023/09/22 10:20:49;;;;;;;4.63;1.30;;;17.00;99.90;;;;;;5052879;28;20174;-51
2023/09/22 10:23:22;;;;;;;5.45;1.48;;;17.00;99.90;;;;;;5051775;28;20067;-50
2023/09/22 10:26:20;;;;;;;4.85;1.48;;;17.00;99.90;;;;;;5053046;28;20033;-54
2023/09/22 10:28:46;;;;;;;2.55;1.33;;;16.90;99.90;;;;;;5018941;28;20053;-50
2023/09/22 10:31:11;;;;;;;4.88;1.30;;;16.90;99.90;;;;;;5052842;28;20036;-50
2023/09/22 10:33:37;;;;;;;3.13;0.73;;;16.90;99.90;;;;;;5051450;28;20025;-50
2023/09/22 10:36:08;;;;;;;1.77;0.60;;;16.90;99.90;;;;;;5052902;28;20021;-53
2023/09/22 10:38:53;;;;;;;1.90;0.50;;;17.00;99.90;;;;;;5052660;28;20122;-53
2023/09/22 10:41:19;;;;;;;1.42;0.63;;;18.30;99.90;;;;;;5052950;28;20500;-53
2023/09/22 10:43:59;;;;;;;1.60;0.50;;;19.40;99.90;;;;;;5052671;28;20029;-54
2023/09/22 10:46:25;;;;;;;1.10;0.50;;;20.30;99.90;;;;;;5052755;28;20033;-53
2023/09/22 10:48:51;;;;;;;1.42;0.50;;;20.30;99.90;;;;;;5052258;28;20033;-54
2023/09/22 10:51:18;;;;;;;0.63;0.40;;;20.30;99.90;;;;;;5050733;28;20040;-53
2023/09/22 10:54:04;;;;;;;0.63;0.32;;;19.80;99.90;;;;;;5051580;28;20497;-50
2023/09/22 10:56:35;;;;;;;0.63;0.40;;;19.20;99.90;;;;;;5052485;28;20561;-53
2023/09/22 10:59:01;;;;;;;0.73;0.40;;;18.80;99.90;;;;;;5050703;28;20029;-52
2023/09/22 11:01:28;;;;;;;1.52;0.45;;;18.80;99.90;;;;;;5052597;28;20359;-54
2023/09/22 11:03:53;;;;;;;0.90;0.50;;;18.90;99.90;;;;;;5052654;28;20029;-55
2023/09/22 11:06:19;;;;;;;2.08;0.50;;;18.90;99.90;;;;;;5052227;28;20043;-53
2023/09/22 11:08:51;;;;;;;0.73;0.22;;;18.80;99.90;;;;;;5051868;28;20043;-54
2023/09/22 11:11:17;;;;;;;1.55;0.43;;;18.90;99.90;;;;;;5051749;28;20044;-54
2023/09/22 11:13:56;;;;;;;1.27;0.50;;;19.00;99.90;;;;;;5052167;28;20032;-52
2023/09/22 11:16:24;;;;;;;1.63;0.77;;;19.10;99.90;;;;;;5052032;28;20119;-55
2023/09/22 11:19:04;;;;;;;4.60;0.93;;;19.20;99.90;;;;;;5050446;28;20043;-50
2023/09/22 11:21:38;;;;;;;0.60;0.50;;;19.00;99.90;;;;;;5051911;28;20037;-55
2023/09/22 11:24:05;;;;;;;2.97;0.43;;;18.80;99.90;;;;;;5051941;28;20554;-51
2023/09/22 11:26:40;;;;;;;1.92;0.80;;;18.60;99.90;;;;;;5052050;28;20389;-55
2023/09/22 11:29:05;;;;;;;1.17;0.50;;;18.40;99.90;;;;;;5051564;28;20044;-54
2023/09/22 11:31:32;;;;;;;0.68;0.40;;;18.40;99.90;;;;;;5051753;28;20033;-54
2023/09/22 11:34:03;;;;;;;1.65;0.70;;;18.30;99.90;;;;;;5051902;28;20021;-53
2023/09/22 11:36:45;;;;;;;3.40;0.52;;;18.20;99.90;;;;;;5052022;28;20029;-54
2023/09/22 11:39:26;;;;;;;3.58;1.02;;;18.10;99.90;;;;;;5052115;28;20025;-50
2023/09/22 11:41:53;;;;;;;1.48;0.95;;;18.10;99.90;;;;;;5052390;28;20481;-53
2023/09/22 11:44:18;;;;;;;2.33;0.60;;;18.10;99.90;;;;;;5052364;28;20079;-55
2023/09/22 11:46:48;;;;;;;0.77;0.40;;;18.10;99.90;;;;;;5052490;28;20053;-51
2023/09/22 11:49:13;;;;;;;2.15;0.70;;;18.20;99.90;;;;;;5052155;28;20040;-55
2023/09/22 11:51:51;;;;;;;2.22;0.50;;;18.30;99.90;;;;;;5053545;28;20036;-55
2023/09/22 11:54:21;;;;;;;1.45;0.55;;;18.40;99.90;;;;;;5053226;28;20051;-55
2023/09/22 11:56:48;;;;;;;1.08;0.57;;;18.70;99.90;;;;;;5053041;28;20032;-54
2023/09/22 11:59:19;;;;;;;1.13;0.50;;;18.80;99.90;;;;;;5053022;28;20048;-55
2023/09/22 12:01:45;;;;;;;1.88;0.60;;;18.90;99.90;;;;;;5050550;28;20389;-54
2023/09/22 12:04:12;;;;;;;0.70;0.50;;;18.90;99.90;;;;;;5050743;28;20047;-54
2023/09/22 12:06:40;;;;;;;1.38;0.98;;;18.90;99.90;;;;;;5050380;28;20054;-51
2023/09/22 12:09:06;;;;;;;0.88;0.38;;;19.10;99.90;;;;;;5050824;28;20047;-54
2023/09/22 12:11:32;;;;;;;1.85;0.50;;;19.00;99.90;;;;;;5050704;28;20036;-53
2023/09/22 12:13:58;;;;;;;2.60;0.75;;;18.80;99.90;;;;;;5050783;28;20025;-52
2023/09/22 12:16:25;;;;;;;4.07;0.90;;;19.00;99.90;;;;;;5051229;28;20025;-54
2023/09/22 12:18:50;;;;;;;2.00;0.88;;;19.00;99.90;;;;;;5050612;28;20021;-51
2023/09/22 12:21:16;;;;;;;2.42;0.85;;;19.00;99.90;;;;;;5050752;28;20032;-54
2023/09/22 12:23:41;;;;;;;4.88;0.70;;;19.10;99.90;;;;;;5050660;28;20032;-55
2023/09/22 12:26:07;;;;;;;1.38;0.43;;;19.30;99.90;;;;;;5050994;28;20029;-55
2023/09/22 12:28:33;;;;;;;2.10;0.77;;;19.50;99.90;;;;;;5050542;28;20442;-53
2023/09/22 12:30:58;;;;;;;1.50;0.40;;;19.60;99.90;;;;;;5050493;28;20029;-55
2023/09/22 12:33:24;;;;;;;2.92;0.50;;;19.70;99.70;;;;;;5050760;28;20029;-49
2023/09/22 12:35:54;;;;;;;0.47;0.40;;;19.50;99.90;;;;;;5050599;28;20432;-53
2023/09/22 12:38:24;;;;;;;2.72;0.60;;;19.30;99.90;;;;;;5050400;28;20029;-52
2023/09/22 12:40:51;;;;;;;1.48;0.60;;;19.40;99.90;;;;;;5049429;28;20367;-52
2023/09/22 12:43:17;;;;;;;1.55;0.52;;;19.20;99.90;;;;;;5049370;28;20040;-56
2023/09/22 12:45:43;;;;;;;1.60;0.60;;;19.20;99.90;;;;;;5049753;28;20107;-54
2023/09/22 12:48:10;;;;;;;1.40;0.50;;;19.50;99.90;;;;;;5050345;28;20102;-56
2023/09/22 12:50:36;;;;;;;0.68;0.40;;;19.70;99.90;;;;;;5050199;28;20496;-55